Bristol Bay Fax Sheet

SIGMETs

Area Forecast for Bristol Bay
BRISTOL BAY AH...VALID UNTIL 290800
...CLOUDS/WX...
SCT025 SCT-BKN045 BKN080 TOP 120 FEW CI ABV. OCNL BKN025 -SHRA.
BY 21Z ISOL BKN025 -SHRA.
AFT 21Z PAIG-PANW LN N ISOL BKN025TCU TOP FL180 -SHRA.
OTLK VALID 290800-291400...PADL N AND W MVFR CIG SN/RA. ELSW VFR.
...TURB...
NIL SIG. EXC VCY TCU.
...ICE AND FZLVL...
ISOL MOD ICEIC 040-110. FZLVL 020.

TAFs
PABE 282343Z 2900/2924 VRB05KT P6SM VCSH SCT025 BKN050
      TEMPO 2902/2906 17007KT -SHRA BKN025
     FM290800 15004KT P6SM SCT035 OVC080
     FM292000 12011KT P6SM VCSH SCT025 BKN050=
PADL 282343Z 2900/2924 17008KT P6SM VCSH SCT015 BKN035
      TEMPO 2900/2904 -SHRA BKN015 OVC035
     FM290600 VRB06KT P6SM SCT020 BKN050
     FM292000 09011G18KT P6SM VCSH SCT015 BKN035=
PAIL 282343Z 2900/2924 12010KT P6SM VCSH SCT030 BKN045
     FM290700 08005KT P6SM SCT025 BKN045
     FM292000 11010KT P6SM VCSH SCT030 BKN045=
PAKN 282343Z 2900/2924 15009KT P6SM -SHRA SCT030 BKN050
      TEMPO 2900/2902 17015G25KT BKN030
     FM290600 14006KT P6SM SCT025 BKN050
     FM292000 12012G20KT P6SM VCSH SCT030 BKN060=

Observations
PALJ  MA 28 2250Z BKN060 OVC150             30          52  39 30004     998  61%  51    
PAIL  AA 28 2253Z SCT032 BKN040 BKN070      10          45  33 12011     003  63%  39    
PAKN  AA 28 2254Z FEW033 SCT055             10          50  38 17016G23  995  63%  44    
PABE  AA 28 2253Z FEW033 SCT050             10          48  32 00003     993  54%  48    
PANW  AA 28 2256Z FEW027 BKN032 OVC055      10          44  34 14009     998  68%  38    
PAPH  AA 28 2256Z FEW028                    10          47  34 16012G20  993  60%  41    
PAPM  AA 28 2256Z BKN023 BKN028 OVC037      10          39  36 25007     993  89%  33  27
PAPN  AA 28 2256Z FEW015 SCT036 BKN045      10 R-       45  37 12010     995  73%  39    
PAIG  AA 28 2256Z BKN060 OVC095             10          40  35 03007     001  82%  35    
PAII  AA 28 2256Z BKN027 OVC037             10          46  35 15010     997  65%  41    
PAJC  AA 28 2256Z OVC038                    10          45  35 13010     995  68%  39    
PAMB  AA 28 2256Z CLR                       10          46  34 14011     997  63%  40    
PADL  MA 28 2256Z FEW018 BKN040             10 R-       45  36 18006     997  70%  41    
PAEH  AA 28 2255Z FEW019 SCT050 BKN070      10          43  36 18017     992  76%  35    

Pilot Reports